Terminal Aerodrome Forecast
Issued by NWS

Home | Current Version | Previous Version | Text Only | Print | Product List | Glossary On
Versions: 1 2 3 4 5 6 7 8 9 10 11 12 13 14
000
FTUS43 KFGF 212338
TAFBJI
TAF
KBJI 212338Z 2200/2224 25006KT P6SM VCSH OVC025
     FM220300 25006KT P6SM OVC070
     FM221200 26007KT P6SM SCT140=

USA.gov is the U.S. government's official web portal to all federal, state and local government web resources and services.